Terminal Aerodrome Forecast
Issued by NWS

Home | Current Version | Previous Version | Text Only | Print | Product List | Glossary Off
Versions: 1 2 3 4 5 6 7 8 9 10 11 12 13 14 15

141
FTUS43 KTOP 240520
TAFFOE
TAF
KFOE 240520Z 2406/2506 16007KT P6SM SKC
     FM241000 18009KT P6SM FEW250 WS020/18045KT
     FM241400 17019G33KT P6SM FEW250
     FM242300 18012G23KT P6SM FEW250=

USA.gov is the U.S. government's official web portal to all federal, state and local government web resources and services.